Terminal Aerodrome Forecast
Issued by NWS Cleveland, OH

Home | Current Version | Previous Version | Graphics & Text | Print | Product List | Glossary Off
Versions: 1 2 3 4 5 6 7 8 9 10 11 12 13 14 15 16 17 18 19 20 21 22 23 24 25 26 27 28 29

000
FTUS41 KCLE 301000 AAB
TAFCLE
TAF AMD
KCLE 301053Z 3011/0112 26004KT 5SM -RA BR SCT015 OVC050
      TEMPO 3011/3013 2SM TSRA BR OVC007CB
     FM301300 32008KT P6SM OVC007
      TEMPO 3013/3015 5SM -RA BR OVC004
     FM301500 36008KT P6SM OVC007
     FM302100 36008KT P6SM OVC015=

USA.gov is the U.S. government's official web portal to all federal, state and local government web resources and services.